createdAt,value
2017-12-22T00:01:39.902Z,28.43
2017-12-22T00:04:07.462Z,30.37
2017-12-22T00:06:34.919Z,29.80
2017-12-22T00:09:02.410Z,29.60
2017-12-22T00:11:29.904Z,30.20
2017-12-22T00:13:58.118Z,35.03
2017-12-22T00:16:25.586Z,30.27
2017-12-22T00:18:53.083Z,30.50
2017-12-22T00:21:21.318Z,30.07
2017-12-22T00:23:48.786Z,37.50
2017-12-22T00:26:16.271Z,32.47
2017-12-22T00:28:44.510Z,30.60
2017-12-22T00:31:11.978Z,32.77
2017-12-22T00:33:40.986Z,32.20
2017-12-22T00:36:08.464Z,35.17
2017-12-22T00:38:36.707Z,33.13
2017-12-22T00:41:04.170Z,32.57
2017-12-22T00:43:31.658Z,34.17
2017-12-22T00:46:03.133Z,31.77
2017-12-22T00:48:30.645Z,32.50
2017-12-22T00:50:58.113Z,33.23
2017-12-22T00:53:26.384Z,31.20
2017-12-22T00:55:54.607Z,33.07
2017-12-22T00:58:22.094Z,32.20
2017-12-22T01:00:49.562Z,30.43
2017-12-22T01:03:17.019Z,30.80
2017-12-22T01:05:45.336Z,33.23
2017-12-22T01:08:12.804Z,33.37
2017-12-22T01:10:40.258Z,30.50
2017-12-22T01:13:07.743Z,28.50
2017-12-22T01:15:41.617Z,31.60
2017-12-22T01:18:14.826Z,30.23
2017-12-22T01:20:42.289Z,26.73
2017-12-22T01:23:09.818Z,32.17
2017-12-22T01:25:37.282Z,33.30
2017-12-22T01:28:04.754Z,40.87
2017-12-22T01:30:32.227Z,33.80
2017-12-22T01:32:59.694Z,30.00
2017-12-22T01:35:27.183Z,28.33
2017-12-22T01:37:54.654Z,29.23
2017-12-22T01:40:22.114Z,28.37
2017-12-22T01:42:49.614Z,28.43
2017-12-22T01:47:53.535Z,30.00
2017-12-22T01:50:20.991Z,28.90
2017-12-22T01:52:48.454Z,28.60
2017-12-22T01:55:16.701Z,31.70
2017-12-22T01:57:44.162Z,31.03
2017-12-22T02:00:11.654Z,29.80
2017-12-22T02:02:39.897Z,29.20
2017-12-22T02:05:07.374Z,29.37
2017-12-22T02:07:34.848Z,29.73
2017-12-22T02:10:03.090Z,30.73
2017-12-22T02:12:30.556Z,35.67
2017-12-22T02:14:58.022Z,29.00
2017-12-22T02:17:25.502Z,28.80
2017-12-22T02:19:53.746Z,24.67
2017-12-22T02:22:21.219Z,26.07
2017-12-22T02:24:49.462Z,30.30
2017-12-22T02:27:16.935Z,26.00
2017-12-22T02:29:44.415Z,27.50
2017-12-22T02:32:12.668Z,27.60
2017-12-22T02:34:40.126Z,26.00
2017-12-22T02:37:07.687Z,27.10
2017-12-22T02:39:35.252Z,26.43
2017-12-22T02:42:02.709Z,28.87
2017-12-22T02:44:30.963Z,26.33
2017-12-22T02:46:59.191Z,25.23
2017-12-22T02:49:26.650Z,25.10
2017-12-22T02:51:54.129Z,23.10
2017-12-22T02:54:21.582Z,23.70
2017-12-22T02:56:49.055Z,24.20
2017-12-22T02:59:17.329Z,22.70
2017-12-22T03:01:44.791Z,23.03
2017-12-22T03:04:12.266Z,26.40
2017-12-22T03:06:39.731Z,22.23
2017-12-22T03:09:07.198Z,21.20
2017-12-22T03:11:35.434Z,32.33
2017-12-22T03:14:02.930Z,21.10
2017-12-22T03:16:31.156Z,21.17
2017-12-22T03:18:58.616Z,27.20
2017-12-22T03:21:26.094Z,19.60
2017-12-22T03:23:53.554Z,18.17
2017-12-22T03:26:21.039Z,17.40
2017-12-22T03:28:48.501Z,16.23
2017-12-22T03:31:16.073Z,19.90
2017-12-22T03:33:43.518Z,16.60
2017-12-22T03:36:10.988Z,17.33
2017-12-22T03:38:38.473Z,21.37
2017-12-22T03:41:05.944Z,15.27
2017-12-22T03:43:33.410Z,18.17
2017-12-22T03:46:00.870Z,17.10
2017-12-22T03:48:29.094Z,14.33
2017-12-22T03:50:56.579Z,12.37
2017-12-22T03:53:24.058Z,12.33
2017-12-22T03:55:52.282Z,13.30
2017-12-22T03:58:19.742Z,12.80
2017-12-22T04:00:47.223Z,13.40
2017-12-22T04:03:14.691Z,14.40
2017-12-22T04:05:42.158Z,11.40
2017-12-22T04:08:10.377Z,11.30
2017-12-22T04:10:37.865Z,12.10
2017-12-22T04:13:05.320Z,11.50
2017-12-22T04:15:32.793Z,13.30
2017-12-22T04:18:00.266Z,14.53
2017-12-22T04:20:28.494Z,12.83
2017-12-22T04:22:55.969Z,12.10
2017-12-22T04:25:23.470Z,11.80
2017-12-22T04:27:50.930Z,11.63
2017-12-22T04:30:18.406Z,12.07
2017-12-22T04:32:45.883Z,10.50
2017-12-22T04:35:13.417Z,10.97
2017-12-22T04:37:40.863Z,11.30
2017-12-22T04:40:08.335Z,11.43
2017-12-22T04:42:35.791Z,10.37
2017-12-22T04:45:03.246Z,9.90
2017-12-22T04:47:30.723Z,11.93
2017-12-22T04:49:58.178Z,11.73
2017-12-22T04:52:25.661Z,12.57
2017-12-22T04:54:53.127Z,11.43
2017-12-22T04:57:20.599Z,11.03
2017-12-22T04:59:48.823Z,9.57
2017-12-22T05:02:16.315Z,11.47
2017-12-22T05:04:44.581Z,9.57
2017-12-22T05:07:12.035Z,9.40
2017-12-22T05:09:40.270Z,9.10
2017-12-22T05:12:07.730Z,10.67
2017-12-22T05:14:35.222Z,9.47
2017-12-22T05:17:02.682Z,7.53
2017-12-22T05:19:30.134Z,7.43
2017-12-22T05:21:57.603Z,8.60
2017-12-22T05:24:25.835Z,8.93
2017-12-22T05:26:53.290Z,7.77
2017-12-22T05:29:20.763Z,9.10
2017-12-22T05:31:48.214Z,8.43
2017-12-22T05:34:15.696Z,8.33
2017-12-22T05:36:43.155Z,9.47
2017-12-22T05:39:10.622Z,10.10
2017-12-22T05:41:38.863Z,9.30
2017-12-22T05:44:06.314Z,9.20
2017-12-22T05:46:33.783Z,9.10
2017-12-22T05:49:01.237Z,9.30
2017-12-22T05:51:28.710Z,9.23
2017-12-22T05:53:56.178Z,9.37
2017-12-22T05:56:24.440Z,9.97
2017-12-22T05:58:51.878Z,10.13
2017-12-22T06:01:19.342Z,10.93
2017-12-22T06:03:47.586Z,12.13
2017-12-22T06:06:15.059Z,12.47
2017-12-22T06:08:42.543Z,11.03
2017-12-22T06:11:10.014Z,13.60
2017-12-22T06:13:38.239Z,12.83
2017-12-22T06:16:05.709Z,15.70
2017-12-22T06:18:33.175Z,11.80
2017-12-22T06:21:01.412Z,11.70
2017-12-22T06:23:28.882Z,13.17
2017-12-22T06:25:56.340Z,11.50
2017-12-22T06:28:23.818Z,13.00
2017-12-22T06:30:51.301Z,12.47
2017-12-22T06:33:19.523Z,11.13
2017-12-22T06:35:46.999Z,10.83
2017-12-22T06:38:14.513Z,13.70
2017-12-22T06:40:41.926Z,11.40
2017-12-22T06:43:09.398Z,11.20
2017-12-22T06:45:37.624Z,11.67
2017-12-22T06:48:05.098Z,12.10
2017-12-22T06:50:32.559Z,11.87
2017-12-22T06:53:00.014Z,11.73
2017-12-22T06:55:27.482Z,12.50
2017-12-22T06:57:54.940Z,12.57
2017-12-22T07:00:22.415Z,12.07
2017-12-22T07:02:50.659Z,11.90
2017-12-22T07:05:18.891Z,12.10
2017-12-22T07:07:46.362Z,14.80
2017-12-22T07:10:13.819Z,13.87
2017-12-22T07:12:41.307Z,16.07
2017-12-22T07:15:08.754Z,15.23
2017-12-22T07:17:36.231Z,14.57
2017-12-22T07:20:05.190Z,14.30
2017-12-22T07:22:32.682Z,16.23
2017-12-22T07:25:00.153Z,16.70
2017-12-22T07:27:28.378Z,16.43
2017-12-22T07:29:55.854Z,17.50
2017-12-22T07:32:23.319Z,17.70
2017-12-22T07:34:50.874Z,18.50
2017-12-22T07:37:19.311Z,19.07
2017-12-22T07:39:46.795Z,18.67
2017-12-22T07:42:14.274Z,19.20
2017-12-22T07:44:41.746Z,18.37
2017-12-22T07:47:09.970Z,19.33
2017-12-22T07:49:37.438Z,18.20
2017-12-22T07:52:04.905Z,20.00
2017-12-22T07:54:32.379Z,19.60
2017-12-22T07:57:01.187Z,21.60
2017-12-22T07:59:28.659Z,22.13
2017-12-22T08:01:56.159Z,19.97
2017-12-22T08:04:23.655Z,20.23
2017-12-22T08:06:51.869Z,20.90
2017-12-22T08:09:19.347Z,19.97
2017-12-22T08:11:46.838Z,21.33
2017-12-22T08:14:15.066Z,21.33
2017-12-22T08:16:42.524Z,19.97
2017-12-22T08:19:10.003Z,20.53
2017-12-22T08:21:37.475Z,22.10
2017-12-22T08:24:05.710Z,23.97
2017-12-22T08:26:33.186Z,20.40
2017-12-22T08:29:00.678Z,19.73
2017-12-22T08:31:28.198Z,20.47
2017-12-22T08:33:55.618Z,21.50
2017-12-22T08:36:23.092Z,19.73
2017-12-22T08:38:50.552Z,19.80
2017-12-22T08:41:18.023Z,19.77
2017-12-22T08:43:46.256Z,21.07
2017-12-22T08:46:13.726Z,21.93
2017-12-22T08:48:41.194Z,22.73
2017-12-22T08:51:08.666Z,24.80
2017-12-22T08:53:36.955Z,24.87
2017-12-22T08:56:04.415Z,24.00
2017-12-22T08:58:32.684Z,23.07
2017-12-22T09:01:00.158Z,23.70
2017-12-22T09:03:28.405Z,22.00
2017-12-22T09:05:55.862Z,24.87
2017-12-22T09:08:23.326Z,23.50
2017-12-22T09:10:50.802Z,23.80
2017-12-22T09:13:19.034Z,23.63
2017-12-22T09:15:46.514Z,26.00
2017-12-22T09:18:13.974Z,23.40
2017-12-22T09:20:41.448Z,23.90
2017-12-22T09:23:10.540Z,22.60
2017-12-22T09:25:38.770Z,22.40
2017-12-22T09:28:06.236Z,25.07
2017-12-22T09:30:33.702Z,22.90
2017-12-22T09:33:01.181Z,22.90
2017-12-22T09:35:29.406Z,22.37
2017-12-22T09:37:56.886Z,23.10
2017-12-22T09:40:24.366Z,19.03
2017-12-22T09:42:52.635Z,19.60
2017-12-22T09:45:20.098Z,21.40
2017-12-22T09:47:48.328Z,21.27
2017-12-22T09:50:15.813Z,22.53
2017-12-22T09:52:43.303Z,21.13
2017-12-22T09:55:11.525Z,22.47
2017-12-22T09:57:39.003Z,21.00
2017-12-22T10:00:06.474Z,19.27
2017-12-22T10:02:34.754Z,19.77
2017-12-22T10:05:02.985Z,19.70
2017-12-22T10:07:30.442Z,17.57
2017-12-22T10:09:57.979Z,18.73
2017-12-22T10:12:25.536Z,18.43
2017-12-22T10:14:53.002Z,19.40
2017-12-22T10:17:20.459Z,20.43
2017-12-22T10:19:47.930Z,19.20
2017-12-22T10:22:15.395Z,18.30
2017-12-22T10:24:42.882Z,18.63
2017-12-22T10:27:11.111Z,17.47
2017-12-22T10:29:38.663Z,18.00
2017-12-22T10:32:06.133Z,19.60
2017-12-22T10:34:33.619Z,18.23
2017-12-22T10:37:01.454Z,15.87
2017-12-22T10:39:28.902Z,19.07
2017-12-22T10:41:56.382Z,18.13
2017-12-22T10:44:23.848Z,18.37
2017-12-22T10:46:52.094Z,18.40
2017-12-22T10:49:19.569Z,18.63
2017-12-22T10:51:47.026Z,18.63
2017-12-22T10:54:14.483Z,16.97
2017-12-22T10:56:41.980Z,16.43
2017-12-22T10:59:10.196Z,17.20
2017-12-22T11:01:37.663Z,15.93
2017-12-22T11:04:05.139Z,17.03
2017-12-22T11:06:32.627Z,16.97
2017-12-22T11:09:00.088Z,18.00
2017-12-22T11:11:27.562Z,16.23
2017-12-22T11:13:55.031Z,15.00
2017-12-22T11:16:22.487Z,16.57
2017-12-22T11:18:49.959Z,15.60
2017-12-22T11:21:17.426Z,16.93
2017-12-22T11:23:44.908Z,14.43
2017-12-22T11:26:13.139Z,16.60
2017-12-22T11:28:40.597Z,15.57
2017-12-22T11:31:08.074Z,17.00
2017-12-22T11:33:36.305Z,15.07
2017-12-22T11:36:03.787Z,15.93
2017-12-22T11:38:32.030Z,15.33
2017-12-22T11:40:59.487Z,15.57
2017-12-22T11:43:26.978Z,16.30
2017-12-22T11:45:54.462Z,15.53
2017-12-22T11:48:22.712Z,14.33
2017-12-22T11:50:50.179Z,14.40
2017-12-22T11:53:17.646Z,14.47
2017-12-22T11:55:45.898Z,14.30
2017-12-22T11:58:13.363Z,14.60
2017-12-22T12:00:40.830Z,14.47
2017-12-22T12:03:08.299Z,13.80
2017-12-22T12:05:35.767Z,13.60
2017-12-22T12:08:03.249Z,13.67
2017-12-22T12:10:30.761Z,13.50
2017-12-22T12:12:58.250Z,12.70
2017-12-22T12:15:25.743Z,12.63
2017-12-22T12:17:53.222Z,13.33
2017-12-22T12:20:20.682Z,13.17
2017-12-22T12:22:48.151Z,14.07
2017-12-22T12:25:16.427Z,14.63
2017-12-22T12:27:44.654Z,14.30
2017-12-22T12:30:12.110Z,13.57
2017-12-22T12:32:39.595Z,14.27
2017-12-22T12:35:07.828Z,13.67
2017-12-22T12:37:35.322Z,12.60
2017-12-22T12:40:03.244Z,13.00
2017-12-22T12:42:30.719Z,11.60
2017-12-22T12:44:58.170Z,14.40
2017-12-22T12:47:25.647Z,13.80
2017-12-22T12:49:53.111Z,13.60
2017-12-22T12:52:21.338Z,14.10
2017-12-22T12:54:48.813Z,14.43
2017-12-22T12:57:16.267Z,13.50
2017-12-22T12:59:43.747Z,11.87
2017-12-22T13:02:11.214Z,12.10
2017-12-22T13:04:38.698Z,12.17
2017-12-22T13:07:06.931Z,12.20
2017-12-22T13:09:34.387Z,11.30
2017-12-22T13:12:01.863Z,12.77
2017-12-22T13:14:29.334Z,14.63
2017-12-22T13:16:57.578Z,13.23
2017-12-22T13:19:25.053Z,13.70
2017-12-22T13:21:52.535Z,15.50
2017-12-22T13:24:20.763Z,15.40
2017-12-22T13:26:48.236Z,15.17
2017-12-22T13:29:15.695Z,15.10
2017-12-22T13:31:43.182Z,14.97
2017-12-22T13:34:11.410Z,14.70
2017-12-22T13:36:39.811Z,15.87
2017-12-22T13:39:07.330Z,14.57
2017-12-22T13:41:35.532Z,15.97
2017-12-22T13:44:03.011Z,15.70
2017-12-22T13:46:31.251Z,15.50
2017-12-22T13:48:58.715Z,15.00
2017-12-22T13:51:26.193Z,15.07
2017-12-22T13:53:53.664Z,14.47
2017-12-22T13:56:22.625Z,13.60
2017-12-22T13:58:50.098Z,12.87
2017-12-22T14:01:18.336Z,11.90
2017-12-22T14:03:45.799Z,11.40
2017-12-22T14:06:13.271Z,11.90
2017-12-22T14:08:40.747Z,12.03
2017-12-22T14:11:09.034Z,12.60
2017-12-22T14:13:37.281Z,12.63
2017-12-22T14:16:04.751Z,12.67
2017-12-22T14:18:32.985Z,12.30
2017-12-22T14:21:00.467Z,12.67
2017-12-22T14:23:27.942Z,12.70
2017-12-22T14:25:55.419Z,13.80
2017-12-22T14:28:22.872Z,12.90
2017-12-22T14:30:50.346Z,13.20
2017-12-22T14:33:17.826Z,14.13
2017-12-22T14:35:45.304Z,14.03
2017-12-22T14:38:12.792Z,14.20
2017-12-22T14:40:40.291Z,16.47
2017-12-22T14:43:07.766Z,15.17
2017-12-22T14:45:35.238Z,16.50
2017-12-22T14:48:02.741Z,16.27
2017-12-22T14:50:30.204Z,16.50
2017-12-22T14:52:57.762Z,15.67
2017-12-22T14:55:25.235Z,15.27
2017-12-22T14:57:52.684Z,15.07
2017-12-22T15:00:20.154Z,14.40
2017-12-22T15:02:47.615Z,15.00
2017-12-22T15:05:15.090Z,14.57
2017-12-22T15:07:42.558Z,13.70
2017-12-22T15:10:10.802Z,12.80
2017-12-22T15:12:39.626Z,14.10
2017-12-22T15:15:07.845Z,12.37
2017-12-22T15:17:35.319Z,12.30
2017-12-22T15:20:03.251Z,13.37
2017-12-22T15:22:30.710Z,13.23
2017-12-22T15:24:58.183Z,13.00
2017-12-22T15:27:25.639Z,12.90
2017-12-22T15:29:53.118Z,12.50
2017-12-22T15:32:20.579Z,13.50
2017-12-22T15:34:48.042Z,12.13
2017-12-22T15:37:15.526Z,12.73
2017-12-22T15:39:43.762Z,13.20
2017-12-22T15:42:11.270Z,14.30
2017-12-22T15:44:39.477Z,15.77
2017-12-22T15:47:06.964Z,15.73
2017-12-22T15:49:34.424Z,16.43
2017-12-22T15:52:01.906Z,14.90
2017-12-22T15:54:30.146Z,16.13
2017-12-22T15:56:57.612Z,15.23
2017-12-22T15:59:25.122Z,15.37
2017-12-22T16:01:52.595Z,16.03
2017-12-22T16:04:20.085Z,15.37
2017-12-22T16:06:47.550Z,16.50
2017-12-22T16:09:15.002Z,17.00
2017-12-22T16:11:42.479Z,16.33
2017-12-22T16:14:16.395Z,17.10
2017-12-22T16:16:43.879Z,17.70
2017-12-22T16:19:11.352Z,20.30
2017-12-22T16:21:38.822Z,18.33
2017-12-22T16:24:06.290Z,16.67
2017-12-22T16:26:33.786Z,17.53
2017-12-22T16:29:01.263Z,17.27
2017-12-22T16:31:28.742Z,18.17
2017-12-22T16:33:56.221Z,19.00
2017-12-22T16:36:23.699Z,17.20
2017-12-22T16:38:51.930Z,19.13
2017-12-22T16:41:19.398Z,19.90
2017-12-22T16:43:46.944Z,19.37
2017-12-22T16:46:14.365Z,20.17
2017-12-22T16:48:41.834Z,19.47
2017-12-22T16:51:09.298Z,21.70
2017-12-22T16:53:36.763Z,20.57
2017-12-22T16:56:04.239Z,19.40
2017-12-22T16:58:31.706Z,19.70
2017-12-22T17:00:59.963Z,19.40
2017-12-22T17:03:27.459Z,19.70
2017-12-22T17:05:55.702Z,18.80
2017-12-22T17:08:23.170Z,20.30
2017-12-22T17:10:51.418Z,19.67
2017-12-22T17:13:18.878Z,21.03
2017-12-22T17:15:46.353Z,20.57
2017-12-22T17:18:13.822Z,21.30
2017-12-22T17:20:42.107Z,22.17
2017-12-22T17:23:09.794Z,22.13
2017-12-22T17:25:37.283Z,23.43
2017-12-22T17:28:04.744Z,21.53
2017-12-22T17:30:32.203Z,22.20
2017-12-22T17:32:59.678Z,24.03
2017-12-22T17:35:27.155Z,26.03
2017-12-22T17:37:55.398Z,28.07
2017-12-22T17:40:22.863Z,26.40
2017-12-22T17:42:50.329Z,25.63
2017-12-22T17:45:18.575Z,24.33
2017-12-22T17:47:46.110Z,26.07
2017-12-22T17:50:13.597Z,24.70
2017-12-22T17:52:41.054Z,25.60
2017-12-22T17:55:08.562Z,24.57
2017-12-22T17:57:36.124Z,29.27
2017-12-22T18:00:04.316Z,27.27
2017-12-22T18:02:31.798Z,26.53
2017-12-22T18:04:59.251Z,26.67
2017-12-22T18:07:26.743Z,25.87
2017-12-22T18:09:54.989Z,25.37
2017-12-22T18:12:22.463Z,24.90
2017-12-22T18:14:50.710Z,27.67
2017-12-22T18:17:18.171Z,27.30
2017-12-22T18:19:45.645Z,27.90
2017-12-22T18:22:13.888Z,26.03
2017-12-22T18:24:41.350Z,25.13
2017-12-22T18:27:08.811Z,25.37
2017-12-22T18:29:36.290Z,26.00
2017-12-22T18:32:04.538Z,25.00
2017-12-22T18:34:32.011Z,24.43
2017-12-22T18:36:59.520Z,25.07
2017-12-22T18:39:26.975Z,27.20
2017-12-22T18:41:54.463Z,26.10
2017-12-22T18:44:21.938Z,27.53
2017-12-22T18:46:49.410Z,31.67
2017-12-22T18:49:16.882Z,36.57
2017-12-22T18:51:44.366Z,38.10
2017-12-22T18:54:11.844Z,31.57
2017-12-22T18:56:39.330Z,31.67
2017-12-22T18:59:07.558Z,34.00
2017-12-22T19:01:35.023Z,42.50
2017-12-22T19:04:02.488Z,33.33
2017-12-22T19:06:30.019Z,39.13
2017-12-22T19:08:57.479Z,48.07
2017-12-22T19:11:24.954Z,44.23
2017-12-22T19:13:52.423Z,41.67
2017-12-22T19:16:19.903Z,32.40
2017-12-22T19:18:47.379Z,41.93
2017-12-22T19:21:15.634Z,40.13
2017-12-22T19:23:43.134Z,44.23
2017-12-22T19:26:10.606Z,34.77
2017-12-22T19:28:38.066Z,38.33
2017-12-22T19:31:05.554Z,31.17
2017-12-22T19:33:33.045Z,30.70
2017-12-22T19:36:00.510Z,35.63
2017-12-22T19:38:27.991Z,41.40
2017-12-22T19:40:55.452Z,41.87
2017-12-22T19:43:22.952Z,45.00
2017-12-22T19:45:51.182Z,37.50
2017-12-22T19:48:18.655Z,38.23
2017-12-22T19:50:46.127Z,46.10
2017-12-22T19:53:14.360Z,47.17
2017-12-22T19:55:41.908Z,45.70
2017-12-22T19:58:09.363Z,52.43
2017-12-22T20:00:36.840Z,63.37
2017-12-22T20:03:04.327Z,39.90
2017-12-22T20:05:31.808Z,51.63
2017-12-22T20:08:00.045Z,60.20
2017-12-22T20:10:27.523Z,58.23
2017-12-22T20:12:54.982Z,70.30
2017-12-22T20:15:23.219Z,51.33
2017-12-22T20:17:50.699Z,51.03
2017-12-22T20:20:18.479Z,46.13
2017-12-22T20:22:45.982Z,41.57
2017-12-22T20:25:13.468Z,34.20
2017-12-22T20:27:43.884Z,32.20
2017-12-22T20:30:11.370Z,32.20
2017-12-22T20:32:38.844Z,31.50
2017-12-22T20:35:07.122Z,31.53
2017-12-22T20:37:34.607Z,32.60
2017-12-22T20:40:02.347Z,31.00
2017-12-22T20:42:30.641Z,31.07
2017-12-22T20:44:58.118Z,27.47
2017-12-22T20:47:25.599Z,30.77
2017-12-22T20:49:53.084Z,35.10
2017-12-22T20:52:21.328Z,29.93
2017-12-22T20:54:48.843Z,27.87
2017-12-22T20:57:16.315Z,31.30
2017-12-22T20:59:43.791Z,41.83
2017-12-22T21:02:11.259Z,31.60
2017-12-22T21:04:38.727Z,31.30
2017-12-22T21:07:06.211Z,24.83
2017-12-22T21:09:33.688Z,25.67
2017-12-22T21:12:01.160Z,24.73
2017-12-22T21:14:28.637Z,23.53
2017-12-22T21:16:56.106Z,24.00
2017-12-22T21:19:23.583Z,22.60
2017-12-22T21:21:51.808Z,25.20
2017-12-22T21:24:19.290Z,26.07
2017-12-22T21:26:46.763Z,26.30
2017-12-22T21:29:15.018Z,23.67
2017-12-22T21:31:42.529Z,22.73
2017-12-22T21:34:09.991Z,20.93
2017-12-22T21:36:37.466Z,23.90
2017-12-22T21:39:04.938Z,21.20
2017-12-22T21:41:32.415Z,22.07
2017-12-22T21:44:00.733Z,19.80
2017-12-22T21:46:28.190Z,21.90
2017-12-22T21:48:55.653Z,22.67
2017-12-22T21:51:23.130Z,24.93
2017-12-22T21:53:50.609Z,26.23
2017-12-22T21:56:19.577Z,23.77
2017-12-22T21:58:47.047Z,23.40
2017-12-22T22:01:14.534Z,23.80
2017-12-22T22:03:42.793Z,22.80
2017-12-22T22:06:11.056Z,23.83
2017-12-22T22:08:38.519Z,24.20
2017-12-22T22:11:05.997Z,24.77
2017-12-22T22:13:34.230Z,23.83
2017-12-22T22:16:01.695Z,23.40
2017-12-22T22:18:29.179Z,24.67
2017-12-22T22:20:57.431Z,26.37
2017-12-22T22:23:25.766Z,24.50
2017-12-22T22:25:53.227Z,25.80
2017-12-22T22:28:20.707Z,25.00
2017-12-22T22:30:48.159Z,23.53
2017-12-22T22:33:15.645Z,26.70
2017-12-22T22:35:43.099Z,25.10
2017-12-22T22:38:10.579Z,27.00
2017-12-22T22:40:38.815Z,27.70
2017-12-22T22:43:06.291Z,25.30
2017-12-22T22:45:35.262Z,28.47
2017-12-22T22:48:02.723Z,27.27
2017-12-22T22:50:30.207Z,28.33
2017-12-22T22:52:58.437Z,27.40
2017-12-22T22:55:25.974Z,28.47
2017-12-22T22:57:53.487Z,27.53
2017-12-22T23:00:20.950Z,30.77
2017-12-22T23:02:49.191Z,29.40
2017-12-22T23:05:16.646Z,30.17
2017-12-22T23:07:44.175Z,33.07
2017-12-22T23:10:11.627Z,32.27
2017-12-22T23:12:39.114Z,34.83
2017-12-22T23:15:06.625Z,33.80
2017-12-22T23:17:34.086Z,35.47
2017-12-22T23:20:01.555Z,34.73
2017-12-22T23:22:29.069Z,35.57
2017-12-22T23:24:56.596Z,36.67
2017-12-22T23:27:24.067Z,35.90
2017-12-22T23:29:51.548Z,35.00
2017-12-22T23:32:19.798Z,37.07
2017-12-22T23:34:47.263Z,37.30
2017-12-22T23:37:15.499Z,34.30
2017-12-22T23:39:42.980Z,36.10
2017-12-22T23:42:10.459Z,35.57
2017-12-22T23:44:37.919Z,34.50
2017-12-22T23:47:05.421Z,35.37
2017-12-22T23:49:32.902Z,36.10
2017-12-22T23:52:00.351Z,35.70
2017-12-22T23:54:29.023Z,36.47
2017-12-22T23:56:56.607Z,34.10
2017-12-22T23:59:24.082Z,33.13
